createdAt,value
2023-03-11T00:00:20.015Z,100739.41
2023-03-11T00:02:47.971Z,100749.25
2023-03-11T00:05:20.119Z,100743.44
2023-03-11T00:07:46.762Z,100756.94
2023-03-11T00:10:22.961Z,100749.75
2023-03-11T00:12:49.762Z,100757.47
2023-03-11T00:15:16.344Z,100758.91
2023-03-11T00:17:43.333Z,100748.88
2023-03-11T00:20:18.110Z,100764.84
2023-03-11T00:22:44.627Z,100761.69
2023-03-11T00:25:12.444Z,100769.41
2023-03-11T00:27:39.148Z,100773.13
2023-03-11T00:30:06.442Z,100778.19
2023-03-11T00:32:33.257Z,100778.59
2023-03-11T00:34:59.875Z,100785.38
2023-03-11T00:37:26.401Z,100788.63
2023-03-11T00:39:52.953Z,100792.91
2023-03-11T00:42:19.758Z,100787.78
2023-03-11T00:44:46.346Z,100798.84
2023-03-11T00:47:13.264Z,100800.50
2023-03-11T00:49:39.864Z,100805.56
2023-03-11T00:52:06.812Z,100815.28
2023-03-11T00:54:33.400Z,100810.22
2023-03-11T00:56:59.912Z,100817.06
2023-03-11T00:59:26.461Z,100811.81
2023-03-11T01:01:53.083Z,100821.16
2023-03-11T01:04:19.668Z,100828.91
2023-03-11T01:06:46.219Z,100816.09
2023-03-11T01:09:13.193Z,100823.22
2023-03-11T01:11:39.796Z,100817.06
2023-03-11T01:14:06.330Z,100826.78
2023-03-11T01:16:32.984Z,100824.97
2023-03-11T01:18:59.524Z,100827.50
2023-03-11T01:21:26.253Z,100835.00
2023-03-11T01:23:52.919Z,100828.44
2023-03-11T01:26:19.518Z,100836.41
2023-03-11T01:28:46.106Z,100829.66
2023-03-11T01:31:12.887Z,100835.59
2023-03-11T01:33:40.017Z,100836.31
2023-03-11T01:36:07.111Z,100833.56
2023-03-11T01:38:33.662Z,100823.88
2023-03-11T01:41:00.208Z,100839.25
2023-03-11T01:43:45.236Z,100844.31
2023-03-11T01:46:31.730Z,100839.91
2023-03-11T01:49:00.834Z,100857.78
2023-03-11T01:51:32.802Z,100860.25
2023-03-11T01:54:04.427Z,100845.81
2023-03-11T01:56:31.924Z,100841.41
2023-03-11T01:58:58.731Z,100837.13
2023-03-11T02:01:25.797Z,100847.59
2023-03-11T02:03:52.522Z,100855.19
2023-03-11T02:06:22.041Z,100854.28
2023-03-11T02:08:49.512Z,100849.94
2023-03-11T02:11:22.308Z,100861.19
2023-03-11T02:13:49.599Z,100857.72
2023-03-11T02:16:16.461Z,100860.91
2023-03-11T02:18:43.739Z,100862.63
2023-03-11T02:21:22.572Z,100856.25
2023-03-11T02:23:52.118Z,100869.78
2023-03-11T02:26:37.636Z,100872.44
2023-03-11T02:29:07.237Z,100866.88
2023-03-11T02:31:38.079Z,100867.28
2023-03-11T02:34:12.002Z,100847.72
2023-03-11T02:36:41.176Z,100834.44
2023-03-11T02:39:09.491Z,100842.91
2023-03-11T02:41:45.957Z,100852.94
2023-03-11T02:44:18.581Z,100834.38
2023-03-11T02:46:45.870Z,100865.69
2023-03-11T02:49:13.120Z,100851.63
2023-03-11T02:51:39.749Z,100861.03
2023-03-11T02:54:06.842Z,100865.06
2023-03-11T02:56:33.479Z,100849.31
2023-03-11T02:59:00.044Z,100845.03
2023-03-11T03:01:26.907Z,100852.53
2023-03-11T03:03:53.672Z,100865.19
2023-03-11T03:06:20.501Z,100872.16
2023-03-11T03:08:47.120Z,100844.72
2023-03-11T03:11:14.204Z,100864.34
2023-03-11T03:13:51.125Z,100872.25
2023-03-11T03:16:20.831Z,100896.00
2023-03-11T03:18:48.102Z,100837.66
2023-03-11T03:23:56.583Z,100895.84
2023-03-11T03:26:23.253Z,100892.28
2023-03-11T03:28:50.026Z,100862.97
2023-03-11T03:31:18.814Z,100866.84
2023-03-11T03:33:45.735Z,100858.72
2023-03-11T03:36:14.552Z,100920.88
2023-03-11T03:38:42.333Z,100883.41
2023-03-11T03:41:29.748Z,100884.72
2023-03-11T03:43:56.623Z,100905.22
2023-03-11T03:46:26.394Z,100871.88
2023-03-11T03:48:53.087Z,100869.59
2023-03-11T03:51:27.458Z,100886.50
2023-03-11T03:53:56.274Z,100930.72
2023-03-11T03:56:24.966Z,100904.41
2023-03-11T03:58:51.641Z,100935.78
2023-03-11T04:01:18.318Z,100924.09
2023-03-11T04:03:45.005Z,100937.94
2023-03-11T04:06:21.306Z,100915.13
2023-03-11T04:08:50.424Z,100929.75
2023-03-11T04:11:17.086Z,100938.41
2023-03-11T04:13:49.717Z,100949.63
2023-03-11T04:16:27.778Z,100966.56
2023-03-11T04:19:16.215Z,100941.28
2023-03-11T04:21:43.137Z,100918.09
2023-03-11T04:24:09.722Z,100965.63
2023-03-11T04:26:36.983Z,100972.75
2023-03-11T04:29:03.534Z,100975.03
2023-03-11T04:31:30.168Z,100978.34
2023-03-11T04:33:56.896Z,100973.97
2023-03-11T04:36:23.458Z,100980.63
2023-03-11T04:38:49.981Z,100972.06
2023-03-11T04:41:16.546Z,100975.22
2023-03-11T04:43:43.084Z,100982.84
2023-03-11T04:46:09.717Z,100975.66
2023-03-11T04:48:36.450Z,100976.78
2023-03-11T04:51:09.045Z,100964.38
2023-03-11T04:53:35.722Z,100960.72
2023-03-11T04:56:08.099Z,100960.34
2023-03-11T04:58:34.809Z,100965.59
2023-03-11T05:01:01.505Z,100973.00
2023-03-11T05:03:32.097Z,100990.47
2023-03-11T05:06:00.281Z,100981.53
2023-03-11T05:08:34.155Z,100988.53
2023-03-11T05:11:00.742Z,100945.53
2023-03-11T05:13:30.622Z,100963.91
2023-03-11T05:15:57.273Z,100988.97
2023-03-11T05:18:24.000Z,100995.94
2023-03-11T05:20:50.686Z,100974.88
2023-03-11T05:23:17.328Z,100970.25
2023-03-11T05:25:48.606Z,100981.25
2023-03-11T05:28:15.340Z,101011.59
2023-03-11T05:30:42.079Z,100973.72
2023-03-11T05:33:08.760Z,100963.44
2023-03-11T05:35:35.503Z,100971.59
2023-03-11T05:38:08.330Z,100963.47
2023-03-11T05:40:35.078Z,100987.63
2023-03-11T05:43:04.354Z,100965.03
2023-03-11T05:45:33.033Z,100984.75
2023-03-11T05:47:59.753Z,100967.41
2023-03-11T05:50:29.197Z,100996.88
2023-03-11T05:52:58.503Z,100974.97
2023-03-11T05:55:27.577Z,100977.41
2023-03-11T05:57:56.848Z,100997.28
2023-03-11T06:00:29.177Z,101044.78
2023-03-11T06:02:55.712Z,101050.00
2023-03-11T06:05:22.277Z,101045.69
2023-03-11T06:07:48.964Z,101059.13
2023-03-11T06:10:15.758Z,101052.13
2023-03-11T06:12:44.732Z,101061.50
2023-03-11T06:15:14.255Z,101043.91
2023-03-11T06:17:41.020Z,101047.50
2023-03-11T06:20:09.579Z,101021.81
2023-03-11T06:22:45.173Z,101043.34
2023-03-11T06:25:12.983Z,101020.84
2023-03-11T06:27:42.057Z,101018.97
2023-03-11T06:30:10.323Z,101079.34
2023-03-11T06:32:37.383Z,101058.69
2023-03-11T06:35:08.080Z,101025.50
2023-03-11T06:37:38.497Z,101026.53
2023-03-11T06:40:11.057Z,101019.84
2023-03-11T06:42:48.436Z,101061.25
2023-03-11T06:45:19.535Z,101036.22
2023-03-11T06:50:30.441Z,101084.19
2023-03-11T06:52:57.382Z,101063.88
2023-03-11T06:55:27.366Z,101048.06
2023-03-11T06:57:57.011Z,101072.38
2023-03-11T07:00:32.442Z,101057.09
2023-03-11T07:03:02.442Z,101091.88
2023-03-11T07:05:29.043Z,101084.28
2023-03-11T07:07:59.438Z,101064.72
2023-03-11T07:10:34.799Z,101095.78
2023-03-11T07:13:10.150Z,101085.22
2023-03-11T07:15:39.753Z,101084.84
2023-03-11T07:18:24.920Z,101063.75
2023-03-11T07:20:54.501Z,101070.38
2023-03-11T07:23:21.554Z,101116.06
2023-03-11T07:25:48.798Z,101120.44
2023-03-11T07:28:18.967Z,101113.72
2023-03-11T07:30:46.675Z,101130.13
2023-03-11T07:33:14.050Z,101105.31
2023-03-11T07:35:41.878Z,101092.22
2023-03-11T07:38:08.589Z,101094.38
2023-03-11T07:40:35.329Z,101142.38
2023-03-11T07:43:02.178Z,101113.13
2023-03-11T07:45:29.989Z,101099.25
2023-03-11T07:47:58.497Z,101075.81
2023-03-11T07:50:25.254Z,101094.22
2023-03-11T07:52:51.834Z,101124.53
2023-03-11T07:55:18.579Z,101110.63
2023-03-11T07:57:48.012Z,101118.50
2023-03-11T08:00:15.527Z,101128.88
2023-03-11T08:02:42.252Z,101136.00
2023-03-11T08:05:09.300Z,101134.59
2023-03-11T08:07:35.832Z,101141.00
2023-03-11T08:10:02.578Z,101098.44
2023-03-11T08:12:29.138Z,101155.19
2023-03-11T08:14:55.707Z,101153.53
2023-03-11T08:17:24.144Z,101165.00
2023-03-11T08:19:50.739Z,101156.44
2023-03-11T08:22:17.435Z,101133.34
2023-03-11T08:24:50.161Z,101122.06
2023-03-11T08:27:16.750Z,101139.09
2023-03-11T08:29:50.326Z,101140.66
2023-03-11T08:32:16.962Z,101140.81
2023-03-11T08:34:46.133Z,101169.72
2023-03-11T08:37:12.838Z,101152.00
2023-03-11T08:39:39.420Z,101139.81
2023-03-11T08:42:06.305Z,101173.72
2023-03-11T08:44:34.243Z,101143.22
2023-03-11T08:47:03.987Z,101144.88
2023-03-11T08:49:34.161Z,101163.63
2023-03-11T08:52:02.041Z,101143.16
2023-03-11T08:54:31.300Z,101164.34
2023-03-11T08:56:58.916Z,101135.94
2023-03-11T08:59:28.392Z,101134.72
2023-03-11T09:01:55.266Z,101167.00
2023-03-11T09:04:21.934Z,101163.16
2023-03-11T09:06:51.178Z,101190.75
2023-03-11T09:09:20.359Z,101181.50
2023-03-11T09:11:48.461Z,101200.06
2023-03-11T09:14:22.581Z,101163.00
2023-03-11T09:16:49.246Z,101186.94
2023-03-11T09:19:15.951Z,101195.25
2023-03-11T09:21:42.637Z,101198.13
2023-03-11T09:24:09.293Z,101199.69
2023-03-11T09:26:39.125Z,101161.00
2023-03-11T09:29:10.662Z,101158.25
2023-03-11T09:31:43.637Z,101152.16
2023-03-11T09:36:55.073Z,101166.31
2023-03-11T09:39:45.834Z,101187.75
2023-03-11T09:42:42.306Z,101150.75
2023-03-11T09:46:03.204Z,101169.75
2023-03-11T09:48:49.677Z,101177.84
2023-03-11T09:51:46.632Z,101145.97
2023-03-11T09:57:44.301Z,101173.84
2023-03-11T10:15:39.531Z,101183.28
2023-03-11T10:18:22.672Z,101200.59
2023-03-11T10:21:16.876Z,101205.19
2023-03-11T10:24:32.610Z,101156.63
2023-03-11T10:28:00.359Z,101154.53
2023-03-11T10:30:45.399Z,101146.44
2023-03-11T10:33:55.592Z,101159.63
2023-03-11T10:37:12.254Z,101162.19
2023-03-11T10:39:44.266Z,101215.31
2023-03-11T10:46:04.387Z,101159.84
2023-03-11T10:48:49.860Z,101151.84
2023-03-11T10:57:11.274Z,101183.47
2023-03-11T11:00:02.986Z,101173.06
2023-03-11T11:02:52.770Z,101184.16
2023-03-11T11:05:27.459Z,101218.56
2023-03-11T11:08:28.237Z,101220.72
2023-03-11T11:14:41.022Z,101171.03
2023-03-11T11:17:45.263Z,101195.97
2023-03-11T11:20:49.560Z,101175.88
2023-03-11T11:23:39.149Z,101198.38
2023-03-11T11:26:22.751Z,101196.81
2023-03-11T11:32:42.326Z,101192.50
2023-03-11T11:38:42.919Z,101196.75
2023-03-11T11:41:22.272Z,101206.75
2023-03-11T11:44:18.025Z,101196.47
2023-03-11T11:47:15.921Z,101232.44
2023-03-11T11:50:04.310Z,101180.16
2023-03-11T11:53:00.165Z,101177.78
2023-03-11T11:55:49.245Z,101229.38
2023-03-11T11:58:20.667Z,101192.97
2023-03-11T12:00:58.678Z,101224.28
2023-03-11T12:04:02.588Z,101218.31
2023-03-11T12:06:54.229Z,101212.75
2023-03-11T12:09:45.567Z,101208.66
2023-03-11T12:12:22.831Z,101212.69
2023-03-11T12:15:07.581Z,101214.94
2023-03-11T12:17:39.051Z,101190.13
2023-03-11T12:20:19.367Z,101211.47
2023-03-11T12:22:54.159Z,101211.72
2023-03-11T12:25:29.035Z,101210.31
2023-03-11T12:28:01.664Z,101208.69
2023-03-11T12:30:38.396Z,101204.69
2023-03-11T12:33:34.239Z,101203.56
2023-03-11T12:36:01.784Z,101205.13
2023-03-11T12:38:39.945Z,101208.16
2023-03-11T12:41:40.032Z,101187.47
2023-03-11T12:44:23.489Z,101203.72
2023-03-11T12:46:59.215Z,101205.69
2023-03-11T12:49:34.125Z,101199.25
2023-03-11T12:52:18.791Z,101204.28
2023-03-11T12:54:59.983Z,101202.84
2023-03-11T13:01:48.151Z,101207.03
2023-03-11T13:04:39.600Z,101195.91
2023-03-11T13:07:31.024Z,101200.53
2023-03-11T13:10:20.380Z,101199.78
2023-03-11T13:12:54.052Z,101192.84
2023-03-11T13:15:58.909Z,101159.56
2023-03-11T13:18:27.978Z,101185.56
2023-03-11T13:20:59.375Z,101183.84
2023-03-11T13:23:40.630Z,101174.50
2023-03-11T13:26:09.975Z,101200.94
2023-03-11T13:28:58.571Z,101201.00
2023-03-11T13:31:43.953Z,101186.63
2023-03-11T13:34:15.074Z,101194.47
2023-03-11T13:37:00.317Z,101208.16
2023-03-11T13:39:38.999Z,101201.69
2023-03-11T13:42:26.581Z,101197.59
2023-03-11T13:44:53.332Z,101202.44
2023-03-11T13:47:21.165Z,101196.66
2023-03-11T13:50:02.344Z,101194.66
2023-03-11T13:52:35.645Z,101199.84
2023-03-11T13:55:02.195Z,101202.25
2023-03-11T13:57:34.266Z,101185.47
2023-03-11T14:00:16.760Z,101201.03
2023-03-11T14:03:11.900Z,101207.31
2023-03-11T14:05:46.790Z,101211.00
2023-03-11T14:08:29.021Z,101218.59
2023-03-11T14:10:59.431Z,101218.94
2023-03-11T14:13:28.824Z,101212.38
2023-03-11T14:16:13.805Z,101214.81
2023-03-11T14:18:49.526Z,101221.78
2023-03-11T14:21:21.729Z,101209.25
2023-03-11T14:23:50.612Z,101200.28
2023-03-11T14:29:19.156Z,101176.69
2023-03-11T14:31:47.517Z,101213.28
2023-03-11T14:34:20.574Z,101173.13
2023-03-11T14:37:00.706Z,101208.41
2023-03-11T14:39:33.440Z,101206.44
2023-03-11T14:42:26.237Z,101218.53
2023-03-11T14:45:07.768Z,101234.66
2023-03-11T14:48:06.261Z,101229.63
2023-03-11T14:50:38.130Z,101190.19
2023-03-11T14:53:30.071Z,101235.00
2023-03-11T14:56:05.654Z,101232.59
2023-03-11T14:58:35.945Z,101180.13
2023-03-11T15:01:25.124Z,101241.34
2023-03-11T15:04:09.041Z,101198.06
2023-03-11T15:06:38.795Z,101235.38
2023-03-11T15:09:12.265Z,101190.50
2023-03-11T15:11:55.017Z,101215.41
2023-03-11T15:14:27.192Z,101181.50
2023-03-11T15:17:08.392Z,101189.41
2023-03-11T15:19:35.396Z,101188.09
2023-03-11T15:22:34.477Z,101244.84
2023-03-11T15:25:17.216Z,101176.53
2023-03-11T15:27:43.911Z,101231.69
2023-03-11T15:30:42.909Z,101210.00
2023-03-11T15:33:23.989Z,101198.84
2023-03-11T15:35:50.794Z,101237.28
2023-03-11T15:38:28.496Z,101206.84
2023-03-11T15:41:01.203Z,101210.25
2023-03-11T15:43:32.515Z,101175.53
2023-03-11T15:46:02.203Z,101175.22
2023-03-11T15:48:31.178Z,101224.94
2023-03-11T15:50:59.583Z,101169.53
2023-03-11T15:53:27.808Z,101195.84
2023-03-11T15:56:07.252Z,101167.41
2023-03-11T15:58:34.564Z,101180.72
2023-03-11T16:01:04.197Z,101183.81
2023-03-11T16:03:36.018Z,101208.47
2023-03-11T16:06:02.697Z,101200.41
2023-03-11T16:08:35.144Z,101236.41
2023-03-11T16:14:27.441Z,101219.28
2023-03-11T16:16:54.050Z,101233.94
2023-03-11T16:19:20.570Z,101218.78
2023-03-11T16:21:50.411Z,101225.59
2023-03-11T16:24:22.728Z,101233.00
2023-03-11T16:26:52.124Z,101230.09
2023-03-11T16:29:20.097Z,101228.97
2023-03-11T16:31:47.245Z,101224.28
2023-03-11T16:34:13.853Z,101236.84
2023-03-11T16:36:40.822Z,101194.19
2023-03-11T16:39:07.469Z,101225.19
2023-03-11T16:41:44.815Z,101194.50
2023-03-11T16:44:11.989Z,101223.97
2023-03-11T16:46:38.788Z,101200.28
2023-03-11T16:49:05.630Z,101176.16
2023-03-11T16:51:33.257Z,101192.41
2023-03-11T16:54:01.566Z,101184.44
2023-03-11T16:56:34.735Z,101209.06
2023-03-11T16:59:03.139Z,101192.06
2023-03-11T17:01:29.866Z,101242.44
2023-03-11T17:03:56.465Z,101216.59
2023-03-11T17:10:51.555Z,101197.69
2023-03-11T17:13:20.853Z,101232.13
2023-03-11T17:16:00.994Z,101228.44
2023-03-11T17:19:40.244Z,101212.47
2023-03-11T17:21:25.225Z,101211.28
2023-03-11T17:23:54.312Z,101213.44
2023-03-11T17:26:22.638Z,101257.91
2023-03-11T17:28:49.197Z,101244.56
2023-03-11T17:31:30.744Z,101217.66
2023-03-11T17:34:00.961Z,101228.16
2023-03-11T17:36:27.728Z,101238.97
2023-03-11T17:38:58.262Z,101245.38
2023-03-11T17:41:28.058Z,101249.41
2023-03-11T17:43:57.247Z,101251.69
2023-03-11T17:46:27.212Z,101270.53
2023-03-11T17:49:00.839Z,101248.41
2023-03-11T17:51:44.357Z,101257.69
2023-03-11T17:54:20.937Z,101259.69
2023-03-11T17:56:48.712Z,101297.56
2023-03-11T17:59:17.632Z,101239.56
2023-03-11T18:01:54.549Z,101300.03
2023-03-11T18:04:21.178Z,101262.91
2023-03-11T18:06:47.754Z,101301.78
2023-03-11T18:09:14.542Z,101251.91
2023-03-11T18:11:49.348Z,101258.53
2023-03-11T18:14:16.023Z,101256.47
2023-03-11T18:16:42.663Z,101261.19
2023-03-11T18:19:15.433Z,101270.63
2023-03-11T18:21:42.070Z,101269.53
2023-03-11T18:24:08.768Z,101253.84
2023-03-11T18:26:38.474Z,101278.66
2023-03-11T18:29:05.092Z,101256.16
2023-03-11T18:31:32.153Z,101271.47
2023-03-11T18:34:02.111Z,101296.13
2023-03-11T18:36:34.461Z,101255.13
2023-03-11T18:39:07.190Z,101241.00
2023-03-11T18:41:37.425Z,101248.72
2023-03-11T18:44:04.760Z,101242.03
2023-03-11T18:46:32.044Z,101308.78
2023-03-11T18:49:00.282Z,101300.19
2023-03-11T18:51:28.712Z,101246.81
2023-03-11T18:53:55.526Z,101285.75
2023-03-11T18:56:22.183Z,101272.44
2023-03-11T18:58:48.978Z,101258.25
2023-03-11T19:01:18.383Z,101249.53
2023-03-11T19:03:50.373Z,101277.38
2023-03-11T19:06:17.831Z,101284.78
2023-03-11T19:08:45.738Z,101304.53
2023-03-11T19:11:18.095Z,101278.69
2023-03-11T19:13:48.204Z,101266.59
2023-03-11T19:16:18.154Z,101243.59
2023-03-11T19:18:48.974Z,101244.22
2023-03-11T19:21:16.439Z,101254.47
2023-03-11T19:23:44.238Z,101265.63
2023-03-11T19:26:12.202Z,101265.47
2023-03-11T19:28:46.955Z,101262.56
2023-03-11T19:31:15.479Z,101261.50
2023-03-11T19:33:49.678Z,101239.41
2023-03-11T19:36:16.372Z,101241.66
2023-03-11T19:38:44.327Z,101266.00
2023-03-11T19:41:14.510Z,101236.72
2023-03-11T19:43:44.706Z,101250.25
2023-03-11T19:46:14.153Z,101261.53
2023-03-11T19:48:44.268Z,101297.03
2023-03-11T19:51:12.181Z,101279.13
2023-03-11T19:53:43.185Z,101283.31
2023-03-11T19:56:12.892Z,101277.03
2023-03-11T19:58:41.826Z,101246.28
2023-03-11T20:01:15.541Z,101266.94
2023-03-11T20:03:44.212Z,101278.56
2023-03-11T20:06:16.559Z,101308.19
2023-03-11T20:08:46.980Z,101270.59
2023-03-11T20:11:13.707Z,101248.44
2023-03-11T20:13:44.471Z,101275.34
2023-03-11T20:17:31.990Z,101303.22
2023-03-11T20:19:04.390Z,101272.97
2023-03-11T20:21:31.229Z,101288.75
2023-03-11T20:24:02.076Z,101252.53
2023-03-11T20:26:31.177Z,101293.19
2023-03-11T20:29:00.992Z,101303.41
2023-03-11T20:31:28.893Z,101255.34
2023-03-11T20:33:59.371Z,101249.94
2023-03-11T20:36:29.750Z,101264.78
2023-03-11T20:38:57.028Z,101253.94
2023-03-11T20:41:27.306Z,101259.09
2023-03-11T20:43:59.432Z,101274.81
2023-03-11T20:46:31.534Z,101274.13
2023-03-11T20:48:58.299Z,101263.03
2023-03-11T20:51:25.250Z,101269.16
2023-03-11T20:53:52.509Z,101278.78
2023-03-11T20:56:22.095Z,101260.41
2023-03-11T20:58:51.265Z,101248.25
2023-03-11T21:01:24.032Z,101307.00
2023-03-11T21:03:58.752Z,101242.59
2023-03-11T21:06:34.448Z,101259.19
2023-03-11T21:09:07.097Z,101274.03
2023-03-11T21:11:37.720Z,101245.38
2023-03-11T21:14:14.905Z,101308.38
2023-03-11T21:16:46.948Z,101231.84
2023-03-11T21:19:21.291Z,101227.53
2023-03-11T21:21:53.712Z,101278.16
2023-03-11T21:24:30.094Z,101266.03
2023-03-11T21:27:04.243Z,101292.91
2023-03-11T21:30:00.293Z,101252.63
2023-03-11T21:32:39.912Z,101237.00
2023-03-11T21:38:31.198Z,101237.16
2023-03-11T21:44:05.771Z,101267.66
2023-03-11T21:46:59.076Z,101240.41
2023-03-11T21:49:43.677Z,101234.81
2023-03-11T21:52:11.554Z,101264.69
2023-03-11T21:54:52.935Z,101252.38
2023-03-11T21:57:29.695Z,101290.66
2023-03-11T22:00:04.216Z,101222.25
2023-03-11T22:02:35.450Z,101258.91
2023-03-11T22:05:08.037Z,101257.03
2023-03-11T22:07:37.593Z,101235.88
2023-03-11T22:10:11.620Z,101232.88
2023-03-11T22:12:55.942Z,101254.47
2023-03-11T22:15:34.754Z,101253.41
2023-03-11T22:18:04.923Z,101236.72
2023-03-11T22:20:39.277Z,101262.94
2023-03-11T22:23:13.175Z,101237.78
2023-03-11T22:25:42.551Z,101248.94
2023-03-11T22:28:30.703Z,101230.94
2023-03-11T22:31:08.227Z,101239.16
2023-03-11T22:33:52.619Z,101226.44
2023-03-11T22:36:42.337Z,101225.75
2023-03-11T22:39:12.863Z,101227.56
2023-03-11T22:41:39.523Z,101227.66
2023-03-11T22:44:08.397Z,101217.44
2023-03-11T22:46:38.104Z,101241.28
2023-03-11T22:49:04.836Z,101235.09
2023-03-11T22:51:34.969Z,101241.44
2023-03-11T22:54:12.298Z,101252.78
2023-03-11T22:56:46.179Z,101215.41
2023-03-11T22:59:13.206Z,101220.13
2023-03-11T23:01:48.726Z,101221.25
2023-03-11T23:04:27.470Z,101272.13
2023-03-11T23:07:00.988Z,101247.38
2023-03-11T23:09:32.304Z,101235.34
2023-03-11T23:12:07.091Z,101223.19
2023-03-11T23:14:45.190Z,101210.97
2023-03-11T23:17:12.541Z,101245.09
2023-03-11T23:19:48.797Z,101200.56
2023-03-11T23:22:18.727Z,101195.50
2023-03-11T23:24:45.401Z,101192.06
2023-03-11T23:27:22.379Z,101197.22
2023-03-11T23:29:50.584Z,101235.84
2023-03-11T23:32:20.354Z,101249.09
2023-03-11T23:34:51.543Z,101222.94
2023-03-11T23:37:18.216Z,101188.66
2023-03-11T23:39:45.093Z,101218.47
2023-03-11T23:42:24.623Z,101232.25
2023-03-11T23:44:56.888Z,101177.66
2023-03-11T23:47:25.239Z,101213.25
2023-03-11T23:49:57.162Z,101174.72
2023-03-11T23:52:31.697Z,101198.84
2023-03-11T23:55:01.113Z,101184.84
2023-03-11T23:57:35.133Z,101201.44
